sensor_id;sensor_type;location;lat;lon;timestamp;P1;durP1;ratioP1;P2;durP2;ratioP2
6372;SDS011;3219;51.362;7.074;2024-03-17T00:01:07;4.72;;;2.88;;
6372;SDS011;3219;51.362;7.074;2024-03-17T00:03:35;2.83;;;2.47;;
6372;SDS011;3219;51.362;7.074;2024-03-17T00:06:02;3.65;;;3.00;;
6372;SDS011;3219;51.362;7.074;2024-03-17T00:08:32;5.28;;;2.30;;
6372;SDS011;3219;51.362;7.074;2024-03-17T00:10:59;4.00;;;3.55;;
6372;SDS011;3219;51.362;7.074;2024-03-17T00:13:27;5.00;;;2.97;;
6372;SDS011;3219;51.362;7.074;2024-03-17T00:15:54;5.15;;;2.45;;
6372;SDS011;3219;51.362;7.074;2024-03-17T00:18:22;5.18;;;2.60;;
6372;SDS011;3219;51.362;7.074;2024-03-17T00:20:51;4.40;;;2.25;;
6372;SDS011;3219;51.362;7.074;2024-03-17T00:23:19;3.67;;;2.70;;
6372;SDS011;3219;51.362;7.074;2024-03-17T00:25:48;6.70;;;3.67;;
6372;SDS011;3219;51.362;7.074;2024-03-17T00:28:16;4.00;;;2.38;;
6372;SDS011;3219;51.362;7.074;2024-03-17T00:30:45;4.25;;;3.83;;
6372;SDS011;3219;51.362;7.074;2024-03-17T00:33:13;5.05;;;3.08;;
6372;SDS011;3219;51.362;7.074;2024-03-17T00:35:40;3.78;;;3.00;;
6372;SDS011;3219;51.362;7.074;2024-03-17T00:38:09;3.15;;;2.53;;
6372;SDS011;3219;51.362;7.074;2024-03-17T00:40:36;5.75;;;3.10;;
6372;SDS011;3219;51.362;7.074;2024-03-17T00:43:07;5.20;;;3.33;;
6372;SDS011;3219;51.362;7.074;2024-03-17T00:45:34;3.80;;;3.47;;
6372;SDS011;3219;51.362;7.074;2024-03-17T00:48:02;5.35;;;2.10;;
6372;SDS011;3219;51.362;7.074;2024-03-17T00:50:31;7.03;;;3.20;;
6372;SDS011;3219;51.362;7.074;2024-03-17T00:52:59;6.15;;;2.42;;
6372;SDS011;3219;51.362;7.074;2024-03-17T00:55:28;3.92;;;3.03;;
6372;SDS011;3219;51.362;7.074;2024-03-17T00:57:56;4.63;;;2.53;;
6372;SDS011;3219;51.362;7.074;2024-03-17T01:00:24;6.43;;;3.08;;
6372;SDS011;3219;51.362;7.074;2024-03-17T01:02:53;4.90;;;2.72;;
6372;SDS011;3219;51.362;7.074;2024-03-17T01:05:20;5.97;;;2.15;;
6372;SDS011;3219;51.362;7.074;2024-03-17T01:07:48;4.45;;;2.47;;
6372;SDS011;3219;51.362;7.074;2024-03-17T01:10:15;5.70;;;3.35;;
6372;SDS011;3219;51.362;7.074;2024-03-17T01:12:43;3.65;;;2.53;;
6372;SDS011;3219;51.362;7.074;2024-03-17T01:15:10;4.45;;;3.08;;
6372;SDS011;3219;51.362;7.074;2024-03-17T01:17:40;5.38;;;2.78;;
6372;SDS011;3219;51.362;7.074;2024-03-17T01:20:07;4.88;;;3.22;;
6372;SDS011;3219;51.362;7.074;2024-03-17T01:22:36;4.95;;;3.13;;
6372;SDS011;3219;51.362;7.074;2024-03-17T01:25:03;4.97;;;2.90;;
6372;SDS011;3219;51.362;7.074;2024-03-17T01:27:33;6.45;;;3.10;;
6372;SDS011;3219;51.362;7.074;2024-03-17T01:30:01;2.97;;;2.45;;
6372;SDS011;3219;51.362;7.074;2024-03-17T01:32:30;3.03;;;2.58;;
6372;SDS011;3219;51.362;7.074;2024-03-17T01:34:59;4.95;;;3.83;;
6372;SDS011;3219;51.362;7.074;2024-03-17T01:37:27;3.67;;;2.58;;
6372;SDS011;3219;51.362;7.074;2024-03-17T01:39:56;4.80;;;3.00;;
6372;SDS011;3219;51.362;7.074;2024-03-17T01:42:24;4.32;;;2.33;;
6372;SDS011;3219;51.362;7.074;2024-03-17T01:44:52;6.03;;;2.70;;
6372;SDS011;3219;51.362;7.074;2024-03-17T01:47:19;3.97;;;2.80;;
6372;SDS011;3219;51.362;7.074;2024-03-17T01:49:48;6.28;;;2.63;;
6372;SDS011;3219;51.362;7.074;2024-03-17T01:52:17;6.45;;;2.42;;
6372;SDS011;3219;51.362;7.074;2024-03-17T01:54:46;4.68;;;2.55;;
6372;SDS011;3219;51.362;7.074;2024-03-17T01:57:14;3.45;;;2.88;;
6372;SDS011;3219;51.362;7.074;2024-03-17T01:59:42;5.85;;;2.97;;
6372;SDS011;3219;51.362;7.074;2024-03-17T02:02:09;4.60;;;3.00;;
6372;SDS011;3219;51.362;7.074;2024-03-17T02:04:37;4.25;;;3.53;;
6372;SDS011;3219;51.362;7.074;2024-03-17T02:07:05;2.70;;;2.50;;
6372;SDS011;3219;51.362;7.074;2024-03-17T02:09:35;4.63;;;3.25;;
6372;SDS011;3219;51.362;7.074;2024-03-17T02:12:02;6.10;;;2.97;;
6372;SDS011;3219;51.362;7.074;2024-03-17T02:14:30;4.30;;;2.28;;
6372;SDS011;3219;51.362;7.074;2024-03-17T02:16:57;3.30;;;2.58;;
6372;SDS011;3219;51.362;7.074;2024-03-17T02:19:25;7.47;;;3.63;;
6372;SDS011;3219;51.362;7.074;2024-03-17T02:21:52;4.53;;;2.78;;
6372;SDS011;3219;51.362;7.074;2024-03-17T02:24:22;5.90;;;3.55;;
6372;SDS011;3219;51.362;7.074;2024-03-17T02:26:49;5.55;;;3.72;;
6372;SDS011;3219;51.362;7.074;2024-03-17T02:29:17;4.95;;;3.20;;
6372;SDS011;3219;51.362;7.074;2024-03-17T02:31:44;5.13;;;3.53;;
6372;SDS011;3219;51.362;7.074;2024-03-17T02:34:12;5.57;;;3.25;;
6372;SDS011;3219;51.362;7.074;2024-03-17T02:36:40;5.22;;;3.58;;
6372;SDS011;3219;51.362;7.074;2024-03-17T02:39:08;5.32;;;2.53;;
6372;SDS011;3219;51.362;7.074;2024-03-17T02:41:54;4.43;;;2.95;;
6372;SDS011;3219;51.362;7.074;2024-03-17T02:44:23;5.07;;;4.28;;
6372;SDS011;3219;51.362;7.074;2024-03-17T02:46:51;5.22;;;3.38;;
6372;SDS011;3219;51.362;7.074;2024-03-17T02:49:19;5.00;;;3.22;;
6372;SDS011;3219;51.362;7.074;2024-03-17T02:51:47;6.22;;;3.25;;
6372;SDS011;3219;51.362;7.074;2024-03-17T02:54:15;5.30;;;3.75;;
6372;SDS011;3219;51.362;7.074;2024-03-17T02:56:43;4.35;;;3.00;;
6372;SDS011;3219;51.362;7.074;2024-03-17T02:59:13;5.43;;;3.75;;
6372;SDS011;3219;51.362;7.074;2024-03-17T03:04:11;6.07;;;3.97;;
6372;SDS011;3219;51.362;7.074;2024-03-17T03:09:08;6.47;;;4.10;;
6372;SDS011;3219;51.362;7.074;2024-03-17T03:11:39;8.57;;;3.67;;
6372;SDS011;3219;51.362;7.074;2024-03-17T03:14:07;5.88;;;3.33;;
6372;SDS011;3219;51.362;7.074;2024-03-17T03:16:37;5.93;;;3.28;;
6372;SDS011;3219;51.362;7.074;2024-03-17T03:19:05;9.30;;;3.55;;
6372;SDS011;3219;51.362;7.074;2024-03-17T03:21:32;4.90;;;3.42;;
6372;SDS011;3219;51.362;7.074;2024-03-17T03:24:01;5.18;;;3.65;;
6372;SDS011;3219;51.362;7.074;2024-03-17T03:26:29;4.80;;;3.90;;
6372;SDS011;3219;51.362;7.074;2024-03-17T03:28:57;7.25;;;3.95;;
6372;SDS011;3219;51.362;7.074;2024-03-17T03:31:25;8.63;;;4.55;;
6372;SDS011;3219;51.362;7.074;2024-03-17T03:33:55;6.95;;;4.22;;
6372;SDS011;3219;51.362;7.074;2024-03-17T03:36:26;8.95;;;5.05;;
6372;SDS011;3219;51.362;7.074;2024-03-17T03:38:54;6.50;;;4.63;;
6372;SDS011;3219;51.362;7.074;2024-03-17T03:41:23;7.20;;;3.80;;
6372;SDS011;3219;51.362;7.074;2024-03-17T03:43:52;6.85;;;3.85;;
6372;SDS011;3219;51.362;7.074;2024-03-17T03:46:20;9.75;;;4.97;;
6372;SDS011;3219;51.362;7.074;2024-03-17T03:48:48;6.43;;;3.70;;
6372;SDS011;3219;51.362;7.074;2024-03-17T03:51:17;10.75;;;4.80;;
6372;SDS011;3219;51.362;7.074;2024-03-17T03:53:45;9.52;;;3.90;;
6372;SDS011;3219;51.362;7.074;2024-03-17T03:56:14;7.65;;;4.35;;
6372;SDS011;3219;51.362;7.074;2024-03-17T03:58:43;6.32;;;4.85;;
6372;SDS011;3219;51.362;7.074;2024-03-17T04:01:11;8.80;;;4.32;;
6372;SDS011;3219;51.362;7.074;2024-03-17T04:03:46;7.78;;;4.70;;
6372;SDS011;3219;51.362;7.074;2024-03-17T04:06:14;7.25;;;4.07;;
6372;SDS011;3219;51.362;7.074;2024-03-17T04:08:44;9.68;;;5.05;;
6372;SDS011;3219;51.362;7.074;2024-03-17T04:11:12;8.13;;;4.80;;
6372;SDS011;3219;51.362;7.074;2024-03-17T04:13:41;11.25;;;5.50;;
6372;SDS011;3219;51.362;7.074;2024-03-17T04:16:09;11.07;;;6.00;;
6372;SDS011;3219;51.362;7.074;2024-03-17T04:18:37;8.13;;;4.32;;
6372;SDS011;3219;51.362;7.074;2024-03-17T04:21:05;9.13;;;4.75;;
6372;SDS011;3219;51.362;7.074;2024-03-17T04:23:34;10.23;;;4.93;;
6372;SDS011;3219;51.362;7.074;2024-03-17T04:26:04;7.97;;;4.95;;
6372;SDS011;3219;51.362;7.074;2024-03-17T04:28:34;10.48;;;5.40;;
6372;SDS011;3219;51.362;7.074;2024-03-17T04:31:03;12.98;;;4.72;;
6372;SDS011;3219;51.362;7.074;2024-03-17T04:33:31;10.95;;;5.63;;
6372;SDS011;3219;51.362;7.074;2024-03-17T04:36:00;11.93;;;5.60;;
6372;SDS011;3219;51.362;7.074;2024-03-17T04:38:28;9.25;;;5.03;;
6372;SDS011;3219;51.362;7.074;2024-03-17T04:40:57;12.65;;;6.32;;
6372;SDS011;3219;51.362;7.074;2024-03-17T04:43:31;8.55;;;5.07;;
6372;SDS011;3219;51.362;7.074;2024-03-17T04:46:00;10.55;;;5.75;;
6372;SDS011;3219;51.362;7.074;2024-03-17T04:48:29;10.30;;;6.03;;
6372;SDS011;3219;51.362;7.074;2024-03-17T04:50:57;10.05;;;4.68;;
6372;SDS011;3219;51.362;7.074;2024-03-17T04:53:26;11.45;;;5.95;;
6372;SDS011;3219;51.362;7.074;2024-03-17T04:56:01;9.88;;;5.40;;
6372;SDS011;3219;51.362;7.074;2024-03-17T04:58:29;10.60;;;4.80;;
6372;SDS011;3219;51.362;7.074;2024-03-17T05:01:04;10.20;;;5.35;;
6372;SDS011;3219;51.362;7.074;2024-03-17T05:03:32;8.43;;;5.70;;
6372;SDS011;3219;51.362;7.074;2024-03-17T05:06:00;10.70;;;4.78;;
6372;SDS011;3219;51.362;7.074;2024-03-17T05:08:29;10.15;;;5.32;;
6372;SDS011;3219;51.362;7.074;2024-03-17T05:10:56;7.80;;;4.85;;
6372;SDS011;3219;51.362;7.074;2024-03-17T05:13:25;10.73;;;5.47;;
6372;SDS011;3219;51.362;7.074;2024-03-17T05:15:53;9.27;;;5.55;;
6372;SDS011;3219;51.362;7.074;2024-03-17T05:18:23;10.55;;;4.85;;
6372;SDS011;3219;51.362;7.074;2024-03-17T05:20:57;13.48;;;5.78;;
6372;SDS011;3219;51.362;7.074;2024-03-17T05:23:26;8.75;;;5.22;;
6372;SDS011;3219;51.362;7.074;2024-03-17T05:25:55;9.93;;;5.70;;
6372;SDS011;3219;51.362;7.074;2024-03-17T05:28:23;10.98;;;6.40;;
6372;SDS011;3219;51.362;7.074;2024-03-17T05:30:52;9.00;;;7.63;;
6372;SDS011;3219;51.362;7.074;2024-03-17T05:33:23;9.52;;;6.47;;
6372;SDS011;3219;51.362;7.074;2024-03-17T05:35:52;10.15;;;6.13;;
6372;SDS011;3219;51.362;7.074;2024-03-17T05:38:21;9.63;;;5.75;;
6372;SDS011;3219;51.362;7.074;2024-03-17T05:40:52;11.00;;;6.15;;
6372;SDS011;3219;51.362;7.074;2024-03-17T05:43:21;11.43;;;5.40;;
6372;SDS011;3219;51.362;7.074;2024-03-17T05:45:50;9.25;;;5.63;;
6372;SDS011;3219;51.362;7.074;2024-03-17T05:48:18;9.32;;;5.05;;
6372;SDS011;3219;51.362;7.074;2024-03-17T05:50:47;10.13;;;6.28;;
6372;SDS011;3219;51.362;7.074;2024-03-17T05:55:44;9.43;;;5.32;;
6372;SDS011;3219;51.362;7.074;2024-03-17T05:58:12;7.05;;;4.30;;
6372;SDS011;3219;51.362;7.074;2024-03-17T06:00:40;9.50;;;5.70;;
6372;SDS011;3219;51.362;7.074;2024-03-17T06:03:08;9.90;;;5.63;;
6372;SDS011;3219;51.362;7.074;2024-03-17T06:05:37;9.10;;;4.72;;
6372;SDS011;3219;51.362;7.074;2024-03-17T06:08:07;8.50;;;4.95;;
6372;SDS011;3219;51.362;7.074;2024-03-17T06:10:36;8.13;;;5.13;;
6372;SDS011;3219;51.362;7.074;2024-03-17T06:13:05;7.68;;;4.03;;
6372;SDS011;3219;51.362;7.074;2024-03-17T06:15:37;9.40;;;5.05;;
6372;SDS011;3219;51.362;7.074;2024-03-17T06:18:05;8.38;;;4.72;;
6372;SDS011;3219;51.362;7.074;2024-03-17T06:20:39;7.03;;;4.72;;
6372;SDS011;3219;51.362;7.074;2024-03-17T06:23:09;6.78;;;5.13;;
6372;SDS011;3219;51.362;7.074;2024-03-17T06:25:39;6.22;;;4.70;;
6372;SDS011;3219;51.362;7.074;2024-03-17T06:28:07;6.15;;;4.25;;
6372;SDS011;3219;51.362;7.074;2024-03-17T06:30:38;7.18;;;4.55;;
6372;SDS011;3219;51.362;7.074;2024-03-17T06:33:07;7.90;;;4.18;;
6372;SDS011;3219;51.362;7.074;2024-03-17T06:35:36;7.88;;;4.30;;
6372;SDS011;3219;51.362;7.074;2024-03-17T06:38:04;7.00;;;4.43;;
6372;SDS011;3219;51.362;7.074;2024-03-17T06:40:36;5.20;;;3.85;;
6372;SDS011;3219;51.362;7.074;2024-03-17T06:43:05;7.13;;;4.43;;
6372;SDS011;3219;51.362;7.074;2024-03-17T06:45:33;5.45;;;3.25;;
6372;SDS011;3219;51.362;7.074;2024-03-17T06:48:01;8.50;;;3.83;;
6372;SDS011;3219;51.362;7.074;2024-03-17T06:50:29;5.95;;;4.35;;
6372;SDS011;3219;51.362;7.074;2024-03-17T06:52:57;7.97;;;3.53;;
6372;SDS011;3219;51.362;7.074;2024-03-17T06:55:25;4.93;;;4.38;;
6372;SDS011;3219;51.362;7.074;2024-03-17T06:57:55;5.22;;;3.65;;
6372;SDS011;3219;51.362;7.074;2024-03-17T07:00:23;4.70;;;3.47;;
6372;SDS011;3219;51.362;7.074;2024-03-17T07:02:51;5.32;;;4.82;;
6372;SDS011;3219;51.362;7.074;2024-03-17T07:05:21;5.00;;;3.65;;
6372;SDS011;3219;51.362;7.074;2024-03-17T07:07:49;5.70;;;3.15;;
6372;SDS011;3219;51.362;7.074;2024-03-17T07:10:17;3.55;;;3.03;;
6372;SDS011;3219;51.362;7.074;2024-03-17T07:12:45;3.97;;;3.30;;
6372;SDS011;3219;51.362;7.074;2024-03-17T07:15:15;3.88;;;3.17;;
6372;SDS011;3219;51.362;7.074;2024-03-17T07:17:43;4.95;;;3.63;;
6372;SDS011;3219;51.362;7.074;2024-03-17T07:20:11;5.32;;;3.45;;
6372;SDS011;3219;51.362;7.074;2024-03-17T07:22:39;5.03;;;3.83;;
6372;SDS011;3219;51.362;7.074;2024-03-17T07:25:07;6.35;;;5.50;;
6372;SDS011;3219;51.362;7.074;2024-03-17T07:27:35;4.38;;;3.45;;
6372;SDS011;3219;51.362;7.074;2024-03-17T07:30:05;3.95;;;3.22;;
6372;SDS011;3219;51.362;7.074;2024-03-17T07:32:35;4.60;;;3.03;;
6372;SDS011;3219;51.362;7.074;2024-03-17T07:35:03;6.65;;;3.92;;
6372;SDS011;3219;51.362;7.074;2024-03-17T07:37:32;5.10;;;2.97;;
6372;SDS011;3219;51.362;7.074;2024-03-17T07:40:00;4.50;;;3.67;;
6372;SDS011;3219;51.362;7.074;2024-03-17T07:42:28;3.92;;;3.33;;
6372;SDS011;3219;51.362;7.074;2024-03-17T07:44:56;4.32;;;2.85;;
6372;SDS011;3219;51.362;7.074;2024-03-17T07:47:24;4.05;;;3.08;;
6372;SDS011;3219;51.362;7.074;2024-03-17T07:50:01;3.95;;;2.33;;
6372;SDS011;3219;51.362;7.074;2024-03-17T07:52:30;3.10;;;2.55;;
6372;SDS011;3219;51.362;7.074;2024-03-17T07:54:58;4.65;;;2.13;;
6372;SDS011;3219;51.362;7.074;2024-03-17T07:57:27;4.63;;;3.30;;
6372;SDS011;3219;51.362;7.074;2024-03-17T07:59:55;3.22;;;2.90;;
6372;SDS011;3219;51.362;7.074;2024-03-17T08:02:23;3.33;;;1.38;;
6372;SDS011;3219;51.362;7.074;2024-03-17T08:04:51;2.97;;;2.35;;
6372;SDS011;3219;51.362;7.074;2024-03-17T08:07:21;2.58;;;1.85;;
6372;SDS011;3219;51.362;7.074;2024-03-17T08:14:45;3.17;;;1.88;;
6372;SDS011;3219;51.362;7.074;2024-03-17T08:17:13;3.42;;;1.27;;
6372;SDS011;3219;51.362;7.074;2024-03-17T08:19:41;3.75;;;2.03;;
6372;SDS011;3219;51.362;7.074;2024-03-17T08:22:09;4.47;;;3.00;;
6372;SDS011;3219;51.362;7.074;2024-03-17T08:24:38;1.92;;;1.35;;
6372;SDS011;3219;51.362;7.074;2024-03-17T08:27:07;2.92;;;2.22;;
6372;SDS011;3219;51.362;7.074;2024-03-17T08:29:35;2.30;;;2.00;;
6372;SDS011;3219;51.362;7.074;2024-03-17T08:32:03;2.08;;;1.85;;
6372;SDS011;3219;51.362;7.074;2024-03-17T08:34:33;2.10;;;1.10;;
6372;SDS011;3219;51.362;7.074;2024-03-17T08:37:01;1.63;;;1.48;;
6372;SDS011;3219;51.362;7.074;2024-03-17T08:39:30;2.75;;;2.33;;
6372;SDS011;3219;51.362;7.074;2024-03-17T08:41:59;2.50;;;1.85;;
6372;SDS011;3219;51.362;7.074;2024-03-17T08:44:27;2.45;;;1.85;;
6372;SDS011;3219;51.362;7.074;2024-03-17T08:46:55;2.92;;;2.42;;
6372;SDS011;3219;51.362;7.074;2024-03-17T08:49:23;1.95;;;1.50;;
6372;SDS011;3219;51.362;7.074;2024-03-17T08:51:52;2.70;;;1.50;;
6372;SDS011;3219;51.362;7.074;2024-03-17T08:54:20;2.92;;;2.38;;
6372;SDS011;3219;51.362;7.074;2024-03-17T08:56:48;2.95;;;1.70;;
6372;SDS011;3219;51.362;7.074;2024-03-17T08:59:18;3.78;;;2.50;;
6372;SDS011;3219;51.362;7.074;2024-03-17T09:01:46;2.22;;;1.77;;
6372;SDS011;3219;51.362;7.074;2024-03-17T09:04:14;2.72;;;2.30;;
6372;SDS011;3219;51.362;7.074;2024-03-17T09:06:42;4.50;;;2.28;;
6372;SDS011;3219;51.362;7.074;2024-03-17T09:09:11;5.03;;;2.28;;
6372;SDS011;3219;51.362;7.074;2024-03-17T09:11:39;5.38;;;2.13;;
6372;SDS011;3219;51.362;7.074;2024-03-17T09:14:08;3.97;;;2.28;;
6372;SDS011;3219;51.362;7.074;2024-03-17T09:16:38;3.60;;;2.20;;
6372;SDS011;3219;51.362;7.074;2024-03-17T09:19:05;3.45;;;1.98;;
6372;SDS011;3219;51.362;7.074;2024-03-17T09:21:33;3.42;;;2.92;;
6372;SDS011;3219;51.362;7.074;2024-03-17T09:24:03;3.05;;;1.90;;
6372;SDS011;3219;51.362;7.074;2024-03-17T09:26:32;3.85;;;1.77;;
6372;SDS011;3219;51.362;7.074;2024-03-17T09:29:01;3.20;;;1.60;;
6372;SDS011;3219;51.362;7.074;2024-03-17T09:31:29;3.80;;;2.50;;
6372;SDS011;3219;51.362;7.074;2024-03-17T09:34:01;4.50;;;2.65;;
6372;SDS011;3219;51.362;7.074;2024-03-17T09:38:57;3.03;;;2.13;;
6372;SDS011;3219;51.362;7.074;2024-03-17T09:41:29;4.80;;;2.10;;
6372;SDS011;3219;51.362;7.074;2024-03-17T09:43:57;4.00;;;2.13;;
6372;SDS011;3219;51.362;7.074;2024-03-17T09:46:26;3.20;;;2.20;;
6372;SDS011;3219;51.362;7.074;2024-03-17T09:48:55;4.68;;;2.47;;
6372;SDS011;3219;51.362;7.074;2024-03-17T09:51:25;3.35;;;2.10;;
6372;SDS011;3219;51.362;7.074;2024-03-17T09:53:53;5.38;;;2.85;;
6372;SDS011;3219;51.362;7.074;2024-03-17T09:56:21;3.88;;;2.22;;
6372;SDS011;3219;51.362;7.074;2024-03-17T09:58:50;3.72;;;2.33;;
6372;SDS011;3219;51.362;7.074;2024-03-17T10:01:18;2.75;;;2.45;;
6372;SDS011;3219;51.362;7.074;2024-03-17T10:03:47;4.85;;;4.35;;
6372;SDS011;3219;51.362;7.074;2024-03-17T10:06:17;3.83;;;2.17;;
6372;SDS011;3219;51.362;7.074;2024-03-17T10:08:47;5.68;;;2.67;;
6372;SDS011;3219;51.362;7.074;2024-03-17T10:11:16;3.65;;;2.70;;
6372;SDS011;3219;51.362;7.074;2024-03-17T10:13:45;3.40;;;2.53;;
6372;SDS011;3219;51.362;7.074;2024-03-17T10:16:22;4.03;;;3.35;;
6372;SDS011;3219;51.362;7.074;2024-03-17T10:19:04;4.95;;;3.17;;
6372;SDS011;3219;51.362;7.074;2024-03-17T10:21:35;3.25;;;2.90;;
6372;SDS011;3219;51.362;7.074;2024-03-17T10:24:06;5.38;;;2.83;;
6372;SDS011;3219;51.362;7.074;2024-03-17T10:26:41;5.22;;;3.40;;
6372;SDS011;3219;51.362;7.074;2024-03-17T10:29:18;4.97;;;2.38;;
6372;SDS011;3219;51.362;7.074;2024-03-17T10:31:47;4.82;;;2.70;;
6372;SDS011;3219;51.362;7.074;2024-03-17T10:34:16;4.43;;;3.13;;
6372;SDS011;3219;51.362;7.074;2024-03-17T10:36:45;3.88;;;3.03;;
6372;SDS011;3219;51.362;7.074;2024-03-17T10:39:22;5.07;;;2.80;;
6372;SDS011;3219;51.362;7.074;2024-03-17T10:41:58;5.18;;;2.95;;
6372;SDS011;3219;51.362;7.074;2024-03-17T10:44:26;3.67;;;2.75;;
6372;SDS011;3219;51.362;7.074;2024-03-17T10:46:55;5.60;;;2.97;;
6372;SDS011;3219;51.362;7.074;2024-03-17T10:49:27;3.92;;;2.20;;
6372;SDS011;3219;51.362;7.074;2024-03-17T10:51:57;4.15;;;2.58;;
6372;SDS011;3219;51.362;7.074;2024-03-17T10:54:26;3.50;;;2.40;;
6372;SDS011;3219;51.362;7.074;2024-03-17T10:56:55;5.97;;;3.05;;
6372;SDS011;3219;51.362;7.074;2024-03-17T10:59:26;3.25;;;2.30;;
6372;SDS011;3219;51.362;7.074;2024-03-17T11:01:56;4.93;;;3.08;;
6372;SDS011;3219;51.362;7.074;2024-03-17T11:04:26;2.88;;;2.38;;
6372;SDS011;3219;51.362;7.074;2024-03-17T11:06:54;8.02;;;3.72;;
6372;SDS011;3219;51.362;7.074;2024-03-17T11:09:23;4.72;;;3.22;;
6372;SDS011;3219;51.362;7.074;2024-03-17T11:11:53;5.53;;;2.65;;
6372;SDS011;3219;51.362;7.074;2024-03-17T11:14:22;5.18;;;2.72;;
6372;SDS011;3219;51.362;7.074;2024-03-17T11:16:51;3.63;;;2.65;;
6372;SDS011;3219;51.362;7.074;2024-03-17T11:19:19;4.03;;;3.33;;
6372;SDS011;3219;51.362;7.074;2024-03-17T11:21:47;4.20;;;3.15;;
6372;SDS011;3219;51.362;7.074;2024-03-17T11:24:19;4.60;;;2.95;;
6372;SDS011;3219;51.362;7.074;2024-03-17T11:26:47;4.20;;;2.60;;
6372;SDS011;3219;51.362;7.074;2024-03-17T11:29:29;4.45;;;3.40;;
6372;SDS011;3219;51.362;7.074;2024-03-17T11:31:58;6.05;;;2.97;;
6372;SDS011;3219;51.362;7.074;2024-03-17T11:34:26;4.38;;;3.03;;
6372;SDS011;3219;51.362;7.074;2024-03-17T11:36:54;4.40;;;2.95;;
6372;SDS011;3219;51.362;7.074;2024-03-17T11:42:10;4.68;;;4.22;;
6372;SDS011;3219;51.362;7.074;2024-03-17T11:44:43;3.78;;;2.30;;
6372;SDS011;3219;51.362;7.074;2024-03-17T11:47:10;5.75;;;3.28;;
6372;SDS011;3219;51.362;7.074;2024-03-17T11:49:39;6.32;;;3.28;;
6372;SDS011;3219;51.362;7.074;2024-03-17T11:52:08;8.13;;;3.80;;
6372;SDS011;3219;51.362;7.074;2024-03-17T11:57:06;5.53;;;3.40;;
6372;SDS011;3219;51.362;7.074;2024-03-17T11:59:34;5.18;;;3.10;;
6372;SDS011;3219;51.362;7.074;2024-03-17T12:02:07;3.85;;;3.13;;
6372;SDS011;3219;51.362;7.074;2024-03-17T12:04:39;5.65;;;4.25;;
6372;SDS011;3219;51.362;7.074;2024-03-17T12:07:09;3.15;;;2.65;;
6372;SDS011;3219;51.362;7.074;2024-03-17T12:09:40;3.92;;;3.03;;
6372;SDS011;3219;51.362;7.074;2024-03-17T12:12:08;4.70;;;2.42;;
6372;SDS011;3219;51.362;7.074;2024-03-17T12:14:38;5.78;;;2.58;;
6372;SDS011;3219;51.362;7.074;2024-03-17T12:17:08;7.32;;;2.88;;
6372;SDS011;3219;51.362;7.074;2024-03-17T12:19:36;3.65;;;3.08;;
6372;SDS011;3219;51.362;7.074;2024-03-17T12:22:04;4.30;;;3.42;;
6372;SDS011;3219;51.362;7.074;2024-03-17T12:24:33;4.13;;;2.47;;
6372;SDS011;3219;51.362;7.074;2024-03-17T12:27:00;3.47;;;2.30;;
6372;SDS011;3219;51.362;7.074;2024-03-17T12:29:30;4.07;;;2.97;;
6372;SDS011;3219;51.362;7.074;2024-03-17T12:31:58;4.13;;;2.47;;
6372;SDS011;3219;51.362;7.074;2024-03-17T12:34:29;4.47;;;2.40;;
6372;SDS011;3219;51.362;7.074;2024-03-17T12:36:57;4.40;;;2.55;;
6372;SDS011;3219;51.362;7.074;2024-03-17T12:39:26;3.22;;;2.30;;
6372;SDS011;3219;51.362;7.074;2024-03-17T12:42:05;4.05;;;2.35;;
6372;SDS011;3219;51.362;7.074;2024-03-17T12:44:34;4.85;;;2.40;;
6372;SDS011;3219;51.362;7.074;2024-03-17T12:47:03;4.35;;;1.98;;
6372;SDS011;3219;51.362;7.074;2024-03-17T12:52:00;2.38;;;1.98;;
6372;SDS011;3219;51.362;7.074;2024-03-17T12:54:29;4.47;;;2.25;;
6372;SDS011;3219;51.362;7.074;2024-03-17T12:57:05;3.15;;;1.88;;
6372;SDS011;3219;51.362;7.074;2024-03-17T12:59:51;3.88;;;2.35;;
6372;SDS011;3219;51.362;7.074;2024-03-17T13:02:41;3.70;;;2.30;;
6372;SDS011;3219;51.362;7.074;2024-03-17T13:05:18;2.40;;;1.75;;
6372;SDS011;3219;51.362;7.074;2024-03-17T13:07:49;3.55;;;1.80;;
6372;SDS011;3219;51.362;7.074;2024-03-17T13:10:19;4.68;;;2.22;;
6372;SDS011;3219;51.362;7.074;2024-03-17T13:12:48;3.63;;;2.42;;
6372;SDS011;3219;51.362;7.074;2024-03-17T13:15:17;5.15;;;2.97;;
6372;SDS011;3219;51.362;7.074;2024-03-17T13:17:45;3.45;;;2.00;;
6372;SDS011;3219;51.362;7.074;2024-03-17T13:20:14;4.53;;;2.92;;
6372;SDS011;3219;51.362;7.074;2024-03-17T13:22:42;2.80;;;2.15;;
6372;SDS011;3219;51.362;7.074;2024-03-17T13:25:14;3.85;;;2.28;;
6372;SDS011;3219;51.362;7.074;2024-03-17T13:27:42;2.58;;;2.15;;
6372;SDS011;3219;51.362;7.074;2024-03-17T13:30:11;4.18;;;3.22;;
6372;SDS011;3219;51.362;7.074;2024-03-17T13:32:39;5.20;;;2.53;;
6372;SDS011;3219;51.362;7.074;2024-03-17T13:35:13;3.63;;;2.05;;
6372;SDS011;3219;51.362;7.074;2024-03-17T13:37:42;4.28;;;2.60;;
6372;SDS011;3219;51.362;7.074;2024-03-17T13:40:11;2.33;;;1.98;;
6372;SDS011;3219;51.362;7.074;2024-03-17T13:42:42;3.53;;;2.17;;
6372;SDS011;3219;51.362;7.074;2024-03-17T13:45:11;3.80;;;2.40;;
6372;SDS011;3219;51.362;7.074;2024-03-17T13:47:39;3.90;;;3.15;;
6372;SDS011;3219;51.362;7.074;2024-03-17T13:50:08;4.38;;;2.08;;
6372;SDS011;3219;51.362;7.074;2024-03-17T13:52:37;3.97;;;2.35;;
6372;SDS011;3219;51.362;7.074;2024-03-17T13:55:06;4.35;;;1.92;;
6372;SDS011;3219;51.362;7.074;2024-03-17T13:57:36;3.35;;;2.63;;
6372;SDS011;3219;51.362;7.074;2024-03-17T14:00:06;2.92;;;1.95;;
6372;SDS011;3219;51.362;7.074;2024-03-17T14:02:34;4.18;;;1.92;;
6372;SDS011;3219;51.362;7.074;2024-03-17T14:05:03;4.18;;;2.33;;
6372;SDS011;3219;51.362;7.074;2024-03-17T14:07:32;2.67;;;2.33;;
6372;SDS011;3219;51.362;7.074;2024-03-17T14:10:00;4.03;;;2.30;;
6372;SDS011;3219;51.362;7.074;2024-03-17T14:12:29;3.90;;;3.58;;
6372;SDS011;3219;51.362;7.074;2024-03-17T14:14:57;3.35;;;1.95;;
6372;SDS011;3219;51.362;7.074;2024-03-17T14:17:26;2.60;;;2.17;;
6372;SDS011;3219;51.362;7.074;2024-03-17T14:19:54;2.40;;;2.20;;
6372;SDS011;3219;51.362;7.074;2024-03-17T14:22:23;3.67;;;2.42;;
6372;SDS011;3219;51.362;7.074;2024-03-17T14:24:51;3.85;;;2.13;;
6372;SDS011;3219;51.362;7.074;2024-03-17T14:27:19;2.65;;;1.67;;
6372;SDS011;3219;51.362;7.074;2024-03-17T14:29:47;2.50;;;2.30;;
6372;SDS011;3219;51.362;7.074;2024-03-17T14:32:15;2.40;;;2.08;;
6372;SDS011;3219;51.362;7.074;2024-03-17T14:34:44;2.30;;;1.40;;
6372;SDS011;3219;51.362;7.074;2024-03-17T14:37:14;3.58;;;1.90;;
6372;SDS011;3219;51.362;7.074;2024-03-17T14:39:42;3.00;;;2.00;;
6372;SDS011;3219;51.362;7.074;2024-03-17T14:42:10;5.82;;;2.05;;
6372;SDS011;3219;51.362;7.074;2024-03-17T14:44:38;3.38;;;1.67;;
6372;SDS011;3219;51.362;7.074;2024-03-17T14:47:07;2.70;;;1.80;;
6372;SDS011;3219;51.362;7.074;2024-03-17T14:49:36;2.42;;;1.95;;
6372;SDS011;3219;51.362;7.074;2024-03-17T14:52:05;3.08;;;1.55;;
6372;SDS011;3219;51.362;7.074;2024-03-17T14:54:34;1.83;;;1.17;;
6372;SDS011;3219;51.362;7.074;2024-03-17T14:57:02;2.40;;;1.42;;
6372;SDS011;3219;51.362;7.074;2024-03-17T14:59:30;2.55;;;1.60;;
6372;SDS011;3219;51.362;7.074;2024-03-17T15:01:59;1.70;;;1.52;;
6372;SDS011;3219;51.362;7.074;2024-03-17T15:04:27;2.25;;;2.05;;
6372;SDS011;3219;51.362;7.074;2024-03-17T15:06:55;3.22;;;1.70;;
6372;SDS011;3219;51.362;7.074;2024-03-17T15:09:25;2.60;;;1.60;;
6372;SDS011;3219;51.362;7.074;2024-03-17T15:11:53;2.83;;;0.95;;
6372;SDS011;3219;51.362;7.074;2024-03-17T15:14:21;3.22;;;1.40;;
6372;SDS011;3219;51.362;7.074;2024-03-17T15:16:50;3.13;;;1.40;;
6372;SDS011;3219;51.362;7.074;2024-03-17T15:19:18;2.97;;;1.77;;
6372;SDS011;3219;51.362;7.074;2024-03-17T15:21:46;2.67;;;1.27;;
6372;SDS011;3219;51.362;7.074;2024-03-17T15:24:14;2.22;;;1.83;;
6372;SDS011;3219;51.362;7.074;2024-03-17T15:26:44;2.03;;;1.42;;
6372;SDS011;3219;51.362;7.074;2024-03-17T15:31:40;2.95;;;1.73;;
6372;SDS011;3219;51.362;7.074;2024-03-17T15:34:08;3.35;;;1.95;;
6372;SDS011;3219;51.362;7.074;2024-03-17T15:36:37;2.85;;;1.73;;
6372;SDS011;3219;51.362;7.074;2024-03-17T15:39:05;3.95;;;2.28;;
6372;SDS011;3219;51.362;7.074;2024-03-17T15:41:36;3.42;;;1.40;;
6372;SDS011;3219;51.362;7.074;2024-03-17T15:44:06;2.85;;;1.83;;
6372;SDS011;3219;51.362;7.074;2024-03-17T15:46:35;3.38;;;1.80;;
6372;SDS011;3219;51.362;7.074;2024-03-17T15:49:03;2.03;;;1.83;;
6372;SDS011;3219;51.362;7.074;2024-03-17T15:51:31;3.63;;;1.95;;